virtualACA

Welcome To Calgary International Airport CYYC

Hub Roster

Pilot Domicile Rank
Ethan Title - ACA1641CanadaChief Pilot
Graham Dawson - ACA2317CanadaChief Pilot
Roger Godden - ACA2339CanadaChief Pilot
Hamir Hamir - ACA2906CanadaFirst Officer
Jake Moerland - ACA3058CanadaSenior Officer
Pam Magee - ACA3207CanadaSenior Officer
Martin Pereira - ACA3249UruguayNew Hire

Current Vatsim Weather


CYYC 161100Z 35009KT 1 3/4SM -SN DRSN BKN017 OVC043 M17/M20 A2971 RMK SN2SC3SC3 SLP155
Calgary International Airport